createdAt,value
2018-08-06T00:00:08.101Z,23.30
2018-08-06T00:02:36.509Z,23.30
2018-08-06T00:05:06.193Z,23.30
2018-08-06T00:07:34.669Z,23.30
2018-08-06T00:10:03.306Z,23.30
2018-08-06T00:12:31.746Z,23.30
2018-08-06T00:15:00.489Z,23.20
2018-08-06T00:17:28.940Z,23.20
2018-08-06T00:19:57.442Z,23.20
2018-08-06T00:22:25.803Z,23.20
2018-08-06T00:24:54.188Z,23.10
2018-08-06T00:27:22.585Z,23.10
2018-08-06T00:29:50.973Z,23.00
2018-08-06T00:32:19.373Z,23.00
2018-08-06T00:34:47.900Z,23.00
2018-08-06T00:37:16.361Z,23.00
2018-08-06T00:39:44.765Z,23.00
2018-08-06T00:42:13.151Z,23.00
2018-08-06T00:44:41.528Z,23.00
2018-08-06T00:47:09.938Z,23.00
2018-08-06T00:49:38.338Z,23.00
2018-08-06T00:52:06.733Z,22.90
2018-08-06T00:54:35.168Z,22.90
2018-08-06T00:57:03.584Z,22.90
2018-08-06T00:59:32.090Z,22.90
2018-08-06T01:02:00.897Z,22.90
2018-08-06T01:04:29.417Z,22.90
2018-08-06T01:06:57.912Z,22.90
2018-08-06T01:09:26.310Z,22.90
2018-08-06T01:11:54.731Z,22.80
2018-08-06T01:14:23.133Z,22.70
2018-08-06T01:16:51.521Z,22.70
2018-08-06T01:19:19.883Z,22.60
2018-08-06T01:21:48.284Z,22.60
2018-08-06T01:24:16.687Z,22.50
2018-08-06T01:26:45.085Z,22.40
2018-08-06T01:29:14.152Z,22.40
2018-08-06T01:31:42.589Z,22.40
2018-08-06T01:36:39.893Z,22.40
2018-08-06T01:39:10.149Z,22.30
2018-08-06T01:41:38.577Z,22.30
2018-08-06T01:44:07.444Z,22.30
2018-08-06T01:46:35.921Z,22.20
2018-08-06T01:49:04.398Z,22.20
2018-08-06T01:51:33.185Z,22.20
2018-08-06T01:54:01.849Z,22.20
2018-08-06T01:56:30.448Z,22.20
2018-08-06T01:58:59.141Z,22.10
2018-08-06T02:01:27.632Z,22.10
2018-08-06T02:03:56.061Z,22.10
2018-08-06T02:06:24.502Z,22.10
2018-08-06T02:08:52.893Z,22.10
2018-08-06T02:11:21.328Z,22.10
2018-08-06T02:13:49.715Z,22.00
2018-08-06T02:16:18.171Z,21.90
2018-08-06T02:18:46.628Z,21.90
2018-08-06T02:23:43.209Z,21.90
2018-08-06T02:26:11.650Z,21.80
2018-08-06T02:28:40.082Z,21.80
2018-08-06T02:33:36.629Z,21.80
2018-08-06T02:36:05.161Z,21.80
2018-08-06T02:41:01.763Z,21.70
2018-08-06T02:43:30.390Z,21.60
2018-08-06T02:45:58.877Z,21.60
2018-08-06T02:48:27.305Z,21.50
2018-08-06T02:50:55.732Z,21.50
2018-08-06T02:53:24.161Z,21.50
2018-08-06T02:55:52.543Z,21.40
2018-08-06T02:58:20.951Z,21.40
2018-08-06T03:00:49.411Z,21.40
2018-08-06T03:03:17.842Z,21.40
2018-08-06T03:05:46.245Z,21.40
2018-08-06T03:08:14.681Z,21.30
2018-08-06T03:10:44.228Z,21.20
2018-08-06T03:13:12.614Z,21.30
2018-08-06T03:15:41.070Z,21.30
2018-08-06T03:20:37.595Z,21.20
2018-08-06T03:23:06.092Z,21.10
2018-08-06T03:25:34.557Z,21.10
2018-08-06T03:28:03.175Z,21.10
2018-08-06T03:30:31.772Z,21.10
2018-08-06T03:33:00.196Z,21.00
2018-08-06T03:35:28.636Z,21.10
2018-08-06T03:37:57.973Z,21.00
2018-08-06T03:40:26.470Z,21.00
2018-08-06T03:42:54.844Z,21.00
2018-08-06T03:45:23.298Z,21.00
2018-08-06T03:47:51.734Z,21.00
2018-08-06T03:50:20.187Z,21.00
2018-08-06T03:52:48.561Z,21.00
2018-08-06T03:55:17.021Z,20.90
2018-08-06T03:57:45.521Z,21.00
2018-08-06T04:00:15.348Z,21.00
2018-08-06T04:02:44.363Z,20.90
2018-08-06T04:05:13.959Z,20.90
2018-08-06T04:07:42.381Z,20.90
2018-08-06T04:10:13.585Z,20.80
2018-08-06T04:12:42.355Z,20.80
2018-08-06T04:15:11.416Z,20.80
2018-08-06T04:17:40.533Z,20.80
2018-08-06T04:20:38.467Z,20.90
2018-08-06T04:23:06.920Z,20.80
2018-08-06T04:25:35.292Z,20.70
2018-08-06T04:28:03.790Z,20.80
2018-08-06T04:30:32.230Z,20.80
2018-08-06T04:33:00.765Z,20.90
2018-08-06T04:35:29.216Z,20.90
2018-08-06T04:37:57.789Z,20.90
2018-08-06T04:40:26.148Z,20.90
2018-08-06T04:42:54.595Z,20.90
2018-08-06T04:45:23.039Z,21.00
2018-08-06T04:47:51.480Z,21.00
2018-08-06T04:50:19.852Z,21.00
2018-08-06T04:52:48.411Z,21.00
2018-08-06T04:55:16.788Z,21.10
2018-08-06T04:57:45.198Z,21.10
2018-08-06T05:00:14.879Z,21.10
2018-08-06T05:02:43.937Z,21.10
2018-08-06T05:05:12.504Z,21.10
2018-08-06T05:07:40.906Z,21.20
2018-08-06T05:10:09.273Z,21.20
2018-08-06T05:12:37.690Z,21.20
2018-08-06T05:15:06.305Z,21.20
2018-08-06T05:17:34.956Z,21.30
2018-08-06T05:20:03.409Z,21.30
2018-08-06T05:22:31.813Z,21.30
2018-08-06T05:25:00.367Z,21.20
2018-08-06T05:27:28.896Z,21.20
2018-08-06T05:29:57.360Z,21.30
2018-08-06T05:32:25.955Z,21.30
2018-08-06T05:34:54.408Z,21.30
2018-08-06T05:37:22.784Z,21.30
2018-08-06T05:39:51.770Z,21.30
2018-08-06T05:42:20.238Z,21.30
2018-08-06T05:44:48.676Z,21.30
2018-08-06T05:47:17.064Z,21.30
2018-08-06T05:49:45.611Z,21.40
2018-08-06T05:52:14.102Z,21.50
2018-08-06T05:54:42.519Z,21.50
2018-08-06T05:57:10.962Z,21.60
2018-08-06T05:59:39.381Z,21.70
2018-08-06T06:02:08.504Z,21.70
2018-08-06T06:04:36.973Z,21.80
2018-08-06T06:07:05.748Z,21.80
2018-08-06T06:09:34.261Z,22.00
2018-08-06T06:12:02.941Z,22.10
2018-08-06T06:14:31.412Z,22.20
2018-08-06T06:17:00.101Z,22.30
2018-08-06T06:19:28.731Z,22.40
2018-08-06T06:21:57.212Z,22.50
2018-08-06T06:24:25.776Z,22.60
2018-08-06T06:26:54.189Z,22.70
2018-08-06T06:29:22.617Z,22.70
2018-08-06T06:31:51.057Z,22.80
2018-08-06T06:36:48.108Z,22.90
2018-08-06T06:39:16.508Z,23.00
2018-08-06T06:41:44.953Z,23.00
2018-08-06T06:44:13.352Z,23.10
2018-08-06T06:46:41.784Z,23.20
2018-08-06T06:49:10.439Z,23.30
2018-08-06T06:51:38.833Z,23.40
2018-08-06T06:54:08.374Z,23.40
2018-08-06T06:56:36.859Z,23.50
2018-08-06T06:59:05.389Z,23.60
2018-08-06T07:01:34.025Z,23.70
2018-08-06T07:04:02.739Z,23.70
2018-08-06T07:06:31.426Z,23.80
2018-08-06T07:08:59.919Z,23.90
2018-08-06T07:11:28.406Z,24.10
2018-08-06T07:13:56.943Z,25.60
2018-08-06T07:16:25.428Z,27.40
2018-08-06T07:18:53.898Z,28.10
2018-08-06T07:21:22.366Z,28.30
2018-08-06T07:23:50.788Z,28.90
2018-08-06T07:26:19.204Z,28.70
2018-08-06T07:28:47.608Z,28.10
2018-08-06T07:31:16.160Z,27.50
2018-08-06T07:33:44.626Z,27.00
2018-08-06T07:36:13.051Z,26.90
2018-08-06T07:38:41.450Z,26.70
2018-08-06T07:41:09.949Z,26.70
2018-08-06T07:43:38.392Z,26.70
2018-08-06T07:48:34.932Z,27.10
2018-08-06T07:51:03.600Z,27.00
2018-08-06T07:53:32.071Z,26.80
2018-08-06T07:56:00.689Z,26.70
2018-08-06T07:58:29.470Z,26.70
2018-08-06T08:00:57.961Z,26.60
2018-08-06T08:03:26.400Z,26.60
2018-08-06T08:05:54.894Z,26.60
2018-08-06T08:08:23.395Z,26.50
2018-08-06T08:10:51.960Z,26.60
2018-08-06T08:13:20.364Z,27.00
2018-08-06T08:15:48.776Z,27.30
2018-08-06T08:18:17.193Z,27.70
2018-08-06T08:20:45.609Z,28.00
2018-08-06T08:23:14.089Z,28.00
2018-08-06T08:25:42.650Z,28.00
2018-08-06T08:28:11.077Z,27.90
2018-08-06T08:30:39.473Z,27.90
2018-08-06T08:33:08.045Z,27.90
2018-08-06T08:35:36.471Z,27.80
2018-08-06T08:38:05.122Z,27.80
2018-08-06T08:40:33.548Z,28.30
2018-08-06T08:43:02.096Z,28.40
2018-08-06T08:45:30.619Z,28.50
2018-08-06T08:47:59.040Z,28.50
2018-08-06T08:50:27.555Z,28.80
2018-08-06T08:52:55.920Z,28.90
2018-08-06T08:55:24.353Z,28.80
2018-08-06T08:57:52.814Z,28.60
2018-08-06T09:05:20.188Z,28.10
2018-08-06T09:07:49.518Z,28.10
2018-08-06T09:10:19.125Z,28.10
2018-08-06T09:12:47.769Z,28.10
2018-08-06T09:15:20.696Z,28.10
2018-08-06T09:17:49.199Z,28.10
2018-08-06T09:20:17.656Z,28.00
2018-08-06T09:22:46.917Z,28.00
2018-08-06T09:25:15.982Z,27.90
2018-08-06T09:27:45.780Z,28.00
2018-08-06T09:30:16.281Z,28.00
2018-08-06T09:32:46.873Z,28.00
2018-08-06T09:35:16.348Z,28.00
2018-08-06T09:37:44.772Z,28.10
2018-08-06T09:40:17.468Z,28.10
2018-08-06T09:42:46.560Z,28.20
2018-08-06T09:45:16.157Z,28.30
2018-08-06T09:47:45.895Z,28.30
2018-08-06T09:50:16.015Z,28.30
2018-08-06T09:52:45.465Z,28.40
2018-08-06T09:55:15.256Z,28.50
2018-08-06T09:57:44.291Z,28.50
2018-08-06T10:00:20.430Z,28.50
2018-08-06T10:02:49.858Z,28.60
2018-08-06T10:05:19.196Z,28.70
2018-08-06T10:07:48.072Z,28.80
2018-08-06T10:10:16.440Z,28.90
2018-08-06T10:12:45.260Z,28.90
2018-08-06T10:15:14.377Z,29.00
2018-08-06T10:17:43.698Z,29.10
2018-08-06T10:20:16.496Z,29.20
2018-08-06T10:22:44.898Z,29.20
2018-08-06T10:25:14.212Z,29.20
2018-08-06T10:27:43.412Z,29.30
2018-08-06T10:30:20.743Z,29.40
2018-08-06T10:32:49.047Z,29.50
2018-08-06T10:35:18.268Z,29.50
2018-08-06T10:37:46.916Z,29.60
2018-08-06T10:40:17.758Z,29.70
2018-08-06T10:42:46.517Z,29.70
2018-08-06T10:45:16.248Z,29.70
2018-08-06T10:47:44.776Z,29.70
2018-08-06T10:50:13.219Z,29.80
2018-08-06T10:52:41.643Z,29.80
2018-08-06T10:55:10.568Z,29.80
2018-08-06T10:57:40.022Z,29.80
2018-08-06T11:00:12.495Z,29.70
2018-08-06T11:02:40.907Z,29.70
2018-08-06T11:05:10.764Z,29.80
2018-08-06T11:07:39.327Z,29.80
2018-08-06T11:10:10.776Z,29.90
2018-08-06T11:12:39.863Z,29.90
2018-08-06T11:15:12.366Z,29.90
2018-08-06T11:17:40.776Z,30.00
2018-08-06T11:20:10.919Z,30.10
2018-08-06T11:22:39.993Z,30.10
2018-08-06T11:25:09.837Z,30.10
2018-08-06T11:27:38.325Z,30.20
2018-08-06T11:35:06.031Z,30.30
2018-08-06T11:37:34.567Z,30.30
2018-08-06T11:40:03.585Z,30.30
2018-08-06T11:42:32.707Z,30.30
2018-08-06T11:47:29.620Z,30.40
2018-08-06T11:49:58.218Z,30.40
2018-08-06T11:52:26.757Z,30.50
2018-08-06T11:54:55.188Z,30.50
2018-08-06T11:57:23.808Z,30.50
2018-08-06T11:59:52.220Z,30.50
2018-08-06T12:02:21.013Z,30.50
2018-08-06T12:04:49.457Z,30.60
2018-08-06T12:07:18.119Z,30.60
2018-08-06T12:09:46.553Z,30.70
2018-08-06T12:12:15.344Z,30.80
2018-08-06T12:14:43.833Z,30.80
2018-08-06T12:17:12.269Z,30.90
2018-08-06T12:22:08.908Z,30.90
2018-08-06T12:24:37.313Z,30.90
2018-08-06T12:27:05.916Z,30.80
2018-08-06T12:29:34.485Z,30.70
2018-08-06T12:32:02.988Z,30.70
2018-08-06T12:34:31.631Z,30.70
2018-08-06T12:39:35.038Z,30.70
2018-08-06T12:42:03.658Z,30.80
2018-08-06T12:44:32.183Z,30.90
2018-08-06T12:47:00.856Z,30.90
2018-08-06T12:49:29.414Z,31.10
2018-08-06T12:51:58.102Z,31.20
2018-08-06T12:54:26.598Z,31.20
2018-08-06T12:56:55.081Z,31.20
2018-08-06T12:59:23.578Z,31.30
2018-08-06T13:01:52.012Z,31.40
2018-08-06T13:04:20.482Z,31.40
2018-08-06T13:06:48.961Z,31.50
2018-08-06T13:09:17.318Z,31.50
2018-08-06T13:14:14.387Z,31.50
2018-08-06T13:16:43.310Z,31.50
2018-08-06T13:19:11.834Z,31.60
2018-08-06T13:21:40.265Z,31.60
2018-08-06T13:24:08.688Z,31.60
2018-08-06T13:26:37.062Z,31.60
2018-08-06T13:29:05.601Z,31.70
2018-08-06T13:31:35.022Z,31.60
2018-08-06T13:34:03.558Z,31.60
2018-08-06T13:36:32.362Z,31.60
2018-08-06T13:39:01.225Z,31.60
2018-08-06T13:41:30.047Z,31.70
2018-08-06T13:43:58.667Z,31.80
2018-08-06T13:46:27.130Z,31.80
2018-08-06T13:48:55.576Z,31.80
2018-08-06T13:51:24.099Z,31.90
2018-08-06T13:53:52.684Z,31.90
2018-08-06T13:56:21.125Z,32.00
2018-08-06T13:58:49.531Z,32.10
2018-08-06T14:01:17.948Z,32.10
2018-08-06T14:03:46.401Z,32.10
2018-08-06T14:06:14.897Z,32.10
2018-08-06T14:08:43.291Z,32.10
2018-08-06T14:11:12.317Z,32.10
2018-08-06T14:13:40.738Z,32.20
2018-08-06T14:16:09.989Z,32.30
2018-08-06T14:18:38.724Z,32.30
2018-08-06T14:21:07.537Z,32.30
2018-08-06T14:23:36.036Z,32.20
2018-08-06T14:26:04.779Z,32.30
2018-08-06T14:28:33.569Z,32.20
2018-08-06T14:33:31.672Z,32.20
2018-08-06T14:36:00.664Z,32.20
2018-08-06T14:38:30.275Z,32.10
2018-08-06T14:41:00.092Z,32.10
2018-08-06T14:43:29.178Z,32.10
2018-08-06T14:48:25.723Z,32.10
2018-08-06T14:50:54.195Z,32.10
2018-08-06T14:53:22.908Z,32.10
2018-08-06T14:55:51.664Z,32.10
2018-08-06T14:58:20.159Z,32.10
2018-08-06T15:00:48.553Z,32.20
2018-08-06T15:03:16.956Z,32.20
2018-08-06T15:05:45.813Z,32.20
2018-08-06T15:08:14.227Z,32.30
2018-08-06T15:10:42.661Z,32.30
2018-08-06T15:13:11.185Z,32.30
2018-08-06T15:15:39.685Z,32.30
2018-08-06T15:18:08.080Z,32.30
2018-08-06T15:20:36.557Z,32.30
2018-08-06T15:23:05.145Z,32.30
2018-08-06T15:25:33.680Z,32.30
2018-08-06T15:28:02.184Z,32.30
2018-08-06T15:30:30.701Z,32.30
2018-08-06T15:32:59.417Z,32.30
2018-08-06T15:35:28.311Z,32.30
2018-08-06T15:37:56.914Z,32.20
2018-08-06T15:40:26.798Z,32.20
2018-08-06T15:42:55.764Z,32.20
2018-08-06T15:45:24.507Z,32.20
2018-08-06T15:47:53.102Z,32.10
2018-08-06T15:50:22.318Z,32.20
2018-08-06T15:52:50.795Z,32.20
2018-08-06T15:55:19.501Z,32.20
2018-08-06T15:57:48.191Z,32.20
2018-08-06T16:00:18.641Z,32.30
2018-08-06T16:02:47.428Z,32.30
2018-08-06T16:05:16.177Z,32.30
2018-08-06T16:07:45.310Z,32.30
2018-08-06T16:10:14.487Z,32.40
2018-08-06T16:12:43.416Z,32.40
2018-08-06T16:15:12.972Z,32.40
2018-08-06T16:20:12.671Z,32.50
2018-08-06T16:22:42.096Z,32.40
2018-08-06T16:25:11.547Z,32.40
2018-08-06T16:27:40.313Z,32.40
2018-08-06T16:30:20.451Z,32.40
2018-08-06T16:32:49.376Z,32.40
2018-08-06T16:35:19.823Z,32.40
2018-08-06T16:37:49.105Z,32.30
2018-08-06T16:40:19.595Z,32.30
2018-08-06T16:42:49.021Z,32.30
2018-08-06T16:45:17.732Z,32.30
2018-08-06T16:47:46.616Z,32.20
2018-08-06T16:50:17.608Z,32.20
2018-08-06T16:52:46.678Z,32.10
2018-08-06T16:55:15.475Z,32.10
2018-08-06T16:57:44.011Z,32.10
2018-08-06T17:00:15.428Z,32.00
2018-08-06T17:02:44.252Z,32.00
2018-08-06T17:05:13.746Z,31.90
2018-08-06T17:07:43.464Z,31.80
2018-08-06T17:10:14.446Z,31.80
2018-08-06T17:12:44.305Z,31.70
2018-08-06T17:15:14.165Z,31.60
2018-08-06T17:17:42.852Z,31.60
2018-08-06T17:20:14.237Z,31.60
2018-08-06T17:22:43.553Z,31.50
2018-08-06T17:25:12.724Z,31.50
2018-08-06T17:27:41.533Z,31.40
2018-08-06T17:30:10.661Z,31.50
2018-08-06T17:35:09.633Z,31.40
2018-08-06T17:37:38.156Z,31.40
2018-08-06T17:40:09.263Z,31.30
2018-08-06T17:42:38.189Z,31.30
2018-08-06T17:45:08.926Z,31.20
2018-08-06T17:47:37.761Z,31.20
2018-08-06T17:50:07.613Z,31.20
2018-08-06T17:52:36.149Z,31.10
2018-08-06T17:55:04.859Z,31.10
2018-08-06T17:57:35.147Z,31.00
2018-08-06T18:00:04.319Z,31.00
2018-08-06T18:02:33.014Z,31.00
2018-08-06T18:05:01.536Z,30.90
2018-08-06T18:07:30.788Z,30.90
2018-08-06T18:09:59.489Z,30.80
2018-08-06T18:17:24.281Z,30.80
2018-08-06T18:19:52.641Z,30.80
2018-08-06T18:24:49.290Z,30.70
2018-08-06T18:27:17.786Z,30.60
2018-08-06T18:29:46.308Z,30.60
2018-08-06T18:32:15.023Z,30.50
2018-08-06T18:34:43.523Z,30.40
2018-08-06T18:39:40.511Z,30.30
2018-08-06T18:42:09.255Z,30.20
2018-08-06T18:44:37.784Z,30.20
2018-08-06T18:47:06.809Z,30.10
2018-08-06T18:49:35.373Z,30.00
2018-08-06T18:52:04.093Z,29.90
2018-08-06T18:54:32.753Z,29.90
2018-08-06T18:57:01.686Z,29.80
2018-08-06T18:59:30.180Z,29.70
2018-08-06T19:01:58.915Z,29.70
2018-08-06T19:04:27.770Z,29.60
2018-08-06T19:06:56.342Z,29.50
2018-08-06T19:09:24.886Z,29.40
2018-08-06T19:11:53.386Z,29.40
2018-08-06T19:14:23.802Z,29.30
2018-08-06T19:16:52.816Z,29.20
2018-08-06T19:19:21.684Z,29.10
2018-08-06T19:21:50.752Z,29.10
2018-08-06T19:24:24.631Z,29.00
2018-08-06T19:26:53.095Z,29.00
2018-08-06T19:29:21.456Z,28.90
2018-08-06T19:31:49.923Z,28.90
2018-08-06T19:34:18.623Z,28.80
2018-08-06T19:36:53.039Z,28.80
2018-08-06T19:39:21.510Z,28.70
2018-08-06T19:41:50.109Z,28.70
2018-08-06T19:44:18.516Z,28.60
2018-08-06T19:46:46.952Z,28.60
2018-08-06T19:49:20.771Z,28.50
2018-08-06T19:51:49.217Z,28.50
2018-08-06T19:56:45.818Z,28.40
2018-08-06T20:01:42.480Z,28.30
2018-08-06T20:04:10.896Z,28.30
2018-08-06T20:06:39.416Z,28.30
2018-08-06T20:09:11.832Z,28.30
2018-08-06T20:11:40.419Z,28.20
2018-08-06T20:14:09.044Z,28.20
2018-08-06T20:16:37.532Z,28.20
2018-08-06T20:19:06.313Z,28.20
2018-08-06T20:21:34.819Z,28.10
2018-08-06T20:24:03.499Z,28.10
2018-08-06T20:26:32.051Z,28.00
2018-08-06T20:29:00.752Z,28.10
2018-08-06T20:31:29.549Z,28.00
2018-08-06T20:33:58.069Z,28.00
2018-08-06T20:36:26.696Z,28.00
2018-08-06T20:38:55.105Z,27.90
2018-08-06T20:41:23.559Z,27.90
2018-08-06T20:43:54.895Z,27.90
2018-08-06T20:52:50.569Z,27.70
2018-08-06T20:55:41.142Z,27.60
2018-08-06T20:58:10.106Z,27.60
2018-08-06T21:00:38.567Z,27.60
2018-08-06T21:05:35.449Z,27.50
2018-08-06T21:08:04.029Z,27.50
2018-08-06T21:10:32.934Z,27.40
2018-08-06T21:13:01.505Z,27.40
2018-08-06T21:15:30.053Z,27.30
2018-08-06T21:17:58.596Z,27.30
2018-08-06T21:20:27.065Z,27.30
2018-08-06T21:22:55.603Z,27.20
2018-08-06T21:25:23.976Z,27.20
2018-08-06T21:27:52.402Z,27.10
2018-08-06T21:30:21.730Z,27.10
2018-08-06T21:32:56.284Z,27.10
2018-08-06T21:35:25.964Z,27.00
2018-08-06T21:37:55.048Z,27.00
2018-08-06T21:40:24.300Z,27.00
2018-08-06T21:42:52.844Z,26.90
2018-08-06T21:45:21.343Z,26.90
2018-08-06T21:47:50.266Z,26.80
2018-08-06T21:50:18.876Z,26.80
2018-08-06T21:52:47.548Z,26.80
2018-08-06T21:55:15.957Z,26.80
2018-08-06T21:57:44.348Z,26.70
2018-08-06T22:00:19.919Z,26.70
2018-08-06T22:02:48.375Z,26.70
2018-08-06T22:05:16.799Z,26.70
2018-08-06T22:07:45.188Z,26.60
2018-08-06T22:10:13.708Z,26.60
2018-08-06T22:12:42.219Z,26.50
2018-08-06T22:15:11.542Z,26.50
2018-08-06T22:17:45.760Z,26.40
2018-08-06T22:22:42.474Z,26.40
2018-08-06T22:25:10.917Z,26.30
2018-08-06T22:27:39.672Z,26.30
2018-08-06T22:30:09.807Z,26.30
2018-08-06T22:32:38.225Z,26.20
2018-08-06T22:35:08.130Z,26.10
2018-08-06T22:37:36.552Z,26.10
2018-08-06T22:40:06.186Z,26.00
2018-08-06T22:42:34.868Z,26.00
2018-08-06T22:45:03.448Z,26.00
2018-08-06T22:47:32.140Z,25.90
2018-08-06T22:50:00.756Z,25.90
2018-08-06T22:52:29.308Z,25.90
2018-08-06T22:54:57.706Z,25.90
2018-08-06T22:57:26.157Z,25.80
2018-08-06T22:59:54.534Z,25.80
2018-08-06T23:02:23.089Z,25.70
2018-08-06T23:04:51.553Z,25.70
2018-08-06T23:07:19.973Z,25.70
2018-08-06T23:09:48.420Z,25.70
2018-08-06T23:12:19.900Z,25.60
2018-08-06T23:14:48.308Z,25.60
2018-08-06T23:17:16.768Z,25.50
2018-08-06T23:19:45.190Z,25.50
2018-08-06T23:22:13.584Z,25.50
2018-08-06T23:24:41.981Z,25.50
2018-08-06T23:27:10.373Z,25.40
2018-08-06T23:29:38.944Z,25.40
2018-08-06T23:32:07.371Z,25.40
2018-08-06T23:34:35.757Z,25.30
2018-08-06T23:37:04.292Z,25.30
2018-08-06T23:39:32.832Z,25.30
2018-08-06T23:42:01.250Z,25.30
2018-08-06T23:44:30.240Z,25.20
2018-08-06T23:46:58.651Z,25.10
2018-08-06T23:49:27.199Z,25.10
2018-08-06T23:51:55.684Z,25.10
2018-08-06T23:54:24.089Z,25.10
2018-08-06T23:56:52.492Z,25.00
2018-08-06T23:59:20.892Z,25.00
